sensor_id;sensor_type;location;lat;lon;timestamp;P1;durP1;ratioP1;P2;durP2;ratioP2
16272;SDS011;8244;50.044;9.006;2022-10-16T00:00:40;4.22;;;1.75;;
16272;SDS011;8244;50.044;9.006;2022-10-16T00:05:43;3.67;;;1.88;;
16272;SDS011;8244;50.044;9.006;2022-10-16T00:10:47;4.85;;;2.17;;
16272;SDS011;8244;50.044;9.006;2022-10-16T00:15:49;3.83;;;2.08;;
16272;SDS011;8244;50.044;9.006;2022-10-16T00:20:51;4.75;;;2.45;;
16272;SDS011;8244;50.044;9.006;2022-10-16T00:25:57;4.80;;;2.55;;
16272;SDS011;8244;50.044;9.006;2022-10-16T00:31:02;5.47;;;2.42;;
16272;SDS011;8244;50.044;9.006;2022-10-16T00:36:05;5.32;;;2.33;;
16272;SDS011;8244;50.044;9.006;2022-10-16T00:41:12;8.15;;;2.55;;
16272;SDS011;8244;50.044;9.006;2022-10-16T00:46:20;4.78;;;2.30;;
16272;SDS011;8244;50.044;9.006;2022-10-16T00:51:24;9.40;;;2.60;;
16272;SDS011;8244;50.044;9.006;2022-10-16T00:56:31;5.43;;;2.47;;
16272;SDS011;8244;50.044;9.006;2022-10-16T01:01:33;5.47;;;2.60;;
16272;SDS011;8244;50.044;9.006;2022-10-16T01:06:36;4.65;;;2.60;;
16272;SDS011;8244;50.044;9.006;2022-10-16T01:11:49;5.22;;;2.30;;
16272;SDS011;8244;50.044;9.006;2022-10-16T01:17:00;5.97;;;2.50;;
16272;SDS011;8244;50.044;9.006;2022-10-16T01:22:05;5.65;;;2.50;;
16272;SDS011;8244;50.044;9.006;2022-10-16T01:27:12;5.68;;;2.58;;
16272;SDS011;8244;50.044;9.006;2022-10-16T01:32:16;6.45;;;2.30;;
16272;SDS011;8244;50.044;9.006;2022-10-16T01:37:25;6.40;;;2.20;;
16272;SDS011;8244;50.044;9.006;2022-10-16T01:42:35;3.30;;;2.00;;
16272;SDS011;8244;50.044;9.006;2022-10-16T01:47:41;6.60;;;2.20;;
16272;SDS011;8244;50.044;9.006;2022-10-16T01:52:44;4.18;;;1.88;;
16272;SDS011;8244;50.044;9.006;2022-10-16T01:57:50;1.70;;;1.60;;
16272;SDS011;8244;50.044;9.006;2022-10-16T02:02:54;1.88;;;1.70;;
16272;SDS011;8244;50.044;9.006;2022-10-16T02:07:57;3.35;;;1.65;;
16272;SDS011;8244;50.044;9.006;2022-10-16T02:13:02;6.32;;;1.40;;
16272;SDS011;8244;50.044;9.006;2022-10-16T02:18:07;2.67;;;1.50;;
16272;SDS011;8244;50.044;9.006;2022-10-16T02:23:11;1.67;;;1.52;;
16272;SDS011;8244;50.044;9.006;2022-10-16T02:28:23;2.75;;;1.33;;
16272;SDS011;8244;50.044;9.006;2022-10-16T02:33:28;6.00;;;1.40;;
16272;SDS011;8244;50.044;9.006;2022-10-16T02:38:31;2.08;;;1.20;;
16272;SDS011;8244;50.044;9.006;2022-10-16T02:43:35;3.25;;;1.40;;
16272;SDS011;8244;50.044;9.006;2022-10-16T02:48:37;3.85;;;1.40;;
16272;SDS011;8244;50.044;9.006;2022-10-16T02:53:39;5.75;;;1.40;;
16272;SDS011;8244;50.044;9.006;2022-10-16T02:58:42;3.17;;;1.40;;
16272;SDS011;8244;50.044;9.006;2022-10-16T03:03:43;2.50;;;1.30;;
16272;SDS011;8244;50.044;9.006;2022-10-16T03:08:47;2.67;;;1.38;;
16272;SDS011;8244;50.044;9.006;2022-10-16T03:13:50;1.45;;;1.10;;
16272;SDS011;8244;50.044;9.006;2022-10-16T03:18:52;2.10;;;1.38;;
16272;SDS011;8244;50.044;9.006;2022-10-16T03:23:53;4.13;;;1.55;;
16272;SDS011;8244;50.044;9.006;2022-10-16T03:28:56;1.88;;;1.50;;
16272;SDS011;8244;50.044;9.006;2022-10-16T03:33:58;2.53;;;1.65;;
16272;SDS011;8244;50.044;9.006;2022-10-16T03:39:00;3.20;;;1.60;;
16272;SDS011;8244;50.044;9.006;2022-10-16T03:44:03;2.67;;;1.60;;
16272;SDS011;8244;50.044;9.006;2022-10-16T03:49:05;1.83;;;1.60;;
16272;SDS011;8244;50.044;9.006;2022-10-16T03:54:06;5.18;;;1.90;;
16272;SDS011;8244;50.044;9.006;2022-10-16T03:59:09;2.00;;;1.70;;
16272;SDS011;8244;50.044;9.006;2022-10-16T04:04:11;3.03;;;2.00;;
16272;SDS011;8244;50.044;9.006;2022-10-16T04:09:13;5.20;;;2.05;;
16272;SDS011;8244;50.044;9.006;2022-10-16T04:14:16;5.20;;;2.33;;
16272;SDS011;8244;50.044;9.006;2022-10-16T04:19:18;3.88;;;2.25;;
16272;SDS011;8244;50.044;9.006;2022-10-16T04:24:19;3.80;;;2.30;;
16272;SDS011;8244;50.044;9.006;2022-10-16T04:29:22;7.10;;;2.88;;
16272;SDS011;8244;50.044;9.006;2022-10-16T04:34:24;4.80;;;2.63;;
16272;SDS011;8244;50.044;9.006;2022-10-16T04:39:26;6.53;;;3.00;;
16272;SDS011;8244;50.044;9.006;2022-10-16T04:44:29;4.32;;;2.80;;
16272;SDS011;8244;50.044;9.006;2022-10-16T04:49:30;5.22;;;2.67;;
16272;SDS011;8244;50.044;9.006;2022-10-16T04:54:32;3.95;;;2.80;;
16272;SDS011;8244;50.044;9.006;2022-10-16T04:59:35;7.40;;;3.40;;
16272;SDS011;8244;50.044;9.006;2022-10-16T05:04:37;8.48;;;3.50;;
16272;SDS011;8244;50.044;9.006;2022-10-16T05:09:38;8.10;;;3.55;;
16272;SDS011;8244;50.044;9.006;2022-10-16T05:14:41;4.00;;;3.60;;
16272;SDS011;8244;50.044;9.006;2022-10-16T05:19:43;4.20;;;3.08;;
16272;SDS011;8244;50.044;9.006;2022-10-16T05:24:44;7.47;;;4.10;;
16272;SDS011;8244;50.044;9.006;2022-10-16T05:29:48;6.30;;;3.47;;
16272;SDS011;8244;50.044;9.006;2022-10-16T05:34:50;8.23;;;3.45;;
16272;SDS011;8244;50.044;9.006;2022-10-16T05:39:52;4.72;;;3.10;;
16272;SDS011;8244;50.044;9.006;2022-10-16T05:44:55;6.50;;;3.25;;
16272;SDS011;8244;50.044;9.006;2022-10-16T05:49:56;9.20;;;3.35;;
16272;SDS011;8244;50.044;9.006;2022-10-16T05:54:58;8.75;;;3.60;;
16272;SDS011;8244;50.044;9.006;2022-10-16T06:00:01;6.15;;;3.33;;
16272;SDS011;8244;50.044;9.006;2022-10-16T06:05:04;4.50;;;3.40;;
16272;SDS011;8244;50.044;9.006;2022-10-16T06:10:07;4.05;;;2.70;;
16272;SDS011;8244;50.044;9.006;2022-10-16T06:15:11;5.38;;;2.80;;
16272;SDS011;8244;50.044;9.006;2022-10-16T06:20:12;5.35;;;3.30;;
16272;SDS011;8244;50.044;9.006;2022-10-16T06:25:14;11.77;;;3.25;;
16272;SDS011;8244;50.044;9.006;2022-10-16T06:30:17;4.13;;;2.92;;
16272;SDS011;8244;50.044;9.006;2022-10-16T06:35:19;5.80;;;3.22;;
16272;SDS011;8244;50.044;9.006;2022-10-16T06:40:20;7.60;;;2.78;;
16272;SDS011;8244;50.044;9.006;2022-10-16T06:45:23;3.63;;;2.78;;
16272;SDS011;8244;50.044;9.006;2022-10-16T06:50:25;4.68;;;2.60;;
16272;SDS011;8244;50.044;9.006;2022-10-16T06:55:27;3.28;;;2.90;;
16272;SDS011;8244;50.044;9.006;2022-10-16T07:00:30;4.07;;;2.72;;
16272;SDS011;8244;50.044;9.006;2022-10-16T07:05:32;6.05;;;2.90;;
16272;SDS011;8244;50.044;9.006;2022-10-16T07:10:38;5.00;;;2.95;;
16272;SDS011;8244;50.044;9.006;2022-10-16T07:15:41;8.30;;;3.15;;
16272;SDS011;8244;50.044;9.006;2022-10-16T07:20:43;11.13;;;3.20;;
16272;SDS011;8244;50.044;9.006;2022-10-16T07:25:44;5.68;;;2.40;;
16272;SDS011;8244;50.044;9.006;2022-10-16T07:30:48;4.18;;;2.30;;
16272;SDS011;8244;50.044;9.006;2022-10-16T07:35:50;5.93;;;2.70;;
16272;SDS011;8244;50.044;9.006;2022-10-16T07:40:56;4.30;;;2.55;;
16272;SDS011;8244;50.044;9.006;2022-10-16T07:46:00;3.78;;;2.42;;
16272;SDS011;8244;50.044;9.006;2022-10-16T07:51:04;6.00;;;2.95;;
16272;SDS011;8244;50.044;9.006;2022-10-16T07:56:07;5.40;;;2.67;;
16272;SDS011;8244;50.044;9.006;2022-10-16T08:01:10;6.05;;;2.75;;
16272;SDS011;8244;50.044;9.006;2022-10-16T08:06:14;6.70;;;2.70;;
16272;SDS011;8244;50.044;9.006;2022-10-16T08:11:15;5.03;;;3.42;;
16272;SDS011;8244;50.044;9.006;2022-10-16T08:16:18;6.07;;;2.67;;
16272;SDS011;8244;50.044;9.006;2022-10-16T08:21:21;6.57;;;3.08;;
16272;SDS011;8244;50.044;9.006;2022-10-16T08:26:24;9.10;;;3.33;;
16272;SDS011;8244;50.044;9.006;2022-10-16T08:31:28;5.28;;;2.80;;
16272;SDS011;8244;50.044;9.006;2022-10-16T08:36:29;8.13;;;3.30;;
16272;SDS011;8244;50.044;9.006;2022-10-16T08:47:05;6.30;;;2.67;;
16272;SDS011;8244;50.044;9.006;2022-10-16T08:52:14;7.00;;;2.75;;
16272;SDS011;8244;50.044;9.006;2022-10-16T08:57:16;5.35;;;3.08;;
16272;SDS011;8244;50.044;9.006;2022-10-16T09:02:25;4.97;;;2.88;;
16272;SDS011;8244;50.044;9.006;2022-10-16T09:07:32;7.63;;;3.25;;
16272;SDS011;8244;50.044;9.006;2022-10-16T09:12:43;7.18;;;3.30;;
16272;SDS011;8244;50.044;9.006;2022-10-16T09:17:56;5.15;;;2.60;;
16272;SDS011;8244;50.044;9.006;2022-10-16T09:23:14;6.07;;;2.65;;
16272;SDS011;8244;50.044;9.006;2022-10-16T09:28:18;3.88;;;2.58;;
16272;SDS011;8244;50.044;9.006;2022-10-16T09:33:22;10.90;;;4.75;;
16272;SDS011;8244;50.044;9.006;2022-10-16T09:38:27;9.77;;;3.42;;
16272;SDS011;8244;50.044;9.006;2022-10-16T09:43:32;4.68;;;3.00;;
16272;SDS011;8244;50.044;9.006;2022-10-16T09:48:44;6.28;;;2.35;;
16272;SDS011;8244;50.044;9.006;2022-10-16T09:53:48;6.50;;;2.10;;
16272;SDS011;8244;50.044;9.006;2022-10-16T09:58:56;3.97;;;2.00;;
16272;SDS011;8244;50.044;9.006;2022-10-16T10:04:00;2.83;;;1.92;;
16272;SDS011;8244;50.044;9.006;2022-10-16T10:09:04;5.72;;;2.08;;
16272;SDS011;8244;50.044;9.006;2022-10-16T10:14:20;3.42;;;2.17;;
16272;SDS011;8244;50.044;9.006;2022-10-16T10:19:29;4.85;;;1.92;;
16272;SDS011;8244;50.044;9.006;2022-10-16T10:24:31;5.57;;;1.88;;
16272;SDS011;8244;50.044;9.006;2022-10-16T10:29:36;4.57;;;2.42;;
16272;SDS011;8244;50.044;9.006;2022-10-16T10:34:54;9.05;;;2.28;;
16272;SDS011;8244;50.044;9.006;2022-10-16T10:40:08;7.13;;;1.95;;
16272;SDS011;8244;50.044;9.006;2022-10-16T10:45:33;4.93;;;1.70;;
16272;SDS011;8244;50.044;9.006;2022-10-16T10:50:45;2.78;;;1.67;;
16272;SDS011;8244;50.044;9.006;2022-10-16T10:55:51;5.47;;;2.00;;
16272;SDS011;8244;50.044;9.006;2022-10-16T11:01:01;6.82;;;1.60;;
16272;SDS011;8244;50.044;9.006;2022-10-16T11:06:10;1.67;;;1.52;;
16272;SDS011;8244;50.044;9.006;2022-10-16T11:11:17;3.88;;;2.13;;
16272;SDS011;8244;50.044;9.006;2022-10-16T11:16:26;4.50;;;1.85;;
16272;SDS011;8244;50.044;9.006;2022-10-16T11:21:31;3.83;;;1.85;;
16272;SDS011;8244;50.044;9.006;2022-10-16T11:26:42;2.97;;;1.75;;
16272;SDS011;8244;50.044;9.006;2022-10-16T11:31:48;6.43;;;1.90;;
16272;SDS011;8244;50.044;9.006;2022-10-16T11:36:55;5.10;;;1.80;;
16272;SDS011;8244;50.044;9.006;2022-10-16T11:42:04;5.70;;;1.38;;
16272;SDS011;8244;50.044;9.006;2022-10-16T11:47:14;3.28;;;1.40;;
16272;SDS011;8244;50.044;9.006;2022-10-16T11:52:27;2.65;;;1.55;;
16272;SDS011;8244;50.044;9.006;2022-10-16T11:57:32;2.88;;;1.27;;
16272;SDS011;8244;50.044;9.006;2022-10-16T12:02:40;1.75;;;1.25;;
16272;SDS011;8244;50.044;9.006;2022-10-16T12:07:55;2.42;;;1.40;;
16272;SDS011;8244;50.044;9.006;2022-10-16T12:13:03;4.57;;;1.30;;
16272;SDS011;8244;50.044;9.006;2022-10-16T12:18:07;2.63;;;1.40;;
16272;SDS011;8244;50.044;9.006;2022-10-16T12:23:23;2.95;;;1.50;;
16272;SDS011;8244;50.044;9.006;2022-10-16T12:28:26;2.40;;;1.50;;
16272;SDS011;8244;50.044;9.006;2022-10-16T12:33:30;4.18;;;1.33;;
16272;SDS011;8244;50.044;9.006;2022-10-16T12:38:37;1.20;;;1.10;;
16272;SDS011;8244;50.044;9.006;2022-10-16T12:43:46;2.65;;;1.33;;
16272;SDS011;8244;50.044;9.006;2022-10-16T12:48:48;4.85;;;1.58;;
16272;SDS011;8244;50.044;9.006;2022-10-16T12:54:01;5.82;;;1.30;;
16272;SDS011;8244;50.044;9.006;2022-10-16T12:59:06;5.28;;;1.30;;
16272;SDS011;8244;50.044;9.006;2022-10-16T13:04:20;2.88;;;1.60;;
16272;SDS011;8244;50.044;9.006;2022-10-16T13:09:39;1.40;;;1.30;;
16272;SDS011;8244;50.044;9.006;2022-10-16T13:14:56;2.08;;;1.30;;
16272;SDS011;8244;50.044;9.006;2022-10-16T13:20:21;1.52;;;1.15;;
16272;SDS011;8244;50.044;9.006;2022-10-16T13:25:30;1.33;;;1.20;;
16272;SDS011;8244;50.044;9.006;2022-10-16T13:30:44;3.60;;;1.33;;
16272;SDS011;8244;50.044;9.006;2022-10-16T13:35:53;7.07;;;1.17;;
16272;SDS011;8244;50.044;9.006;2022-10-16T13:40:57;2.35;;;1.20;;
16272;SDS011;8244;50.044;9.006;2022-10-16T13:46:02;1.15;;;1.05;;
16272;SDS011;8244;50.044;9.006;2022-10-16T13:51:06;2.25;;;1.33;;
16272;SDS011;8244;50.044;9.006;2022-10-16T13:56:16;1.48;;;1.20;;
16272;SDS011;8244;50.044;9.006;2022-10-16T14:01:22;1.83;;;1.40;;
16272;SDS011;8244;50.044;9.006;2022-10-16T14:06:25;1.63;;;1.20;;
16272;SDS011;8244;50.044;9.006;2022-10-16T14:11:28;2.75;;;1.38;;
16272;SDS011;8244;50.044;9.006;2022-10-16T14:16:30;2.38;;;1.40;;
16272;SDS011;8244;50.044;9.006;2022-10-16T14:21:33;3.85;;;1.40;;
16272;SDS011;8244;50.044;9.006;2022-10-16T14:26:41;2.55;;;1.70;;
16272;SDS011;8244;50.044;9.006;2022-10-16T14:31:53;3.55;;;1.60;;
16272;SDS011;8244;50.044;9.006;2022-10-16T14:36:56;2.67;;;1.50;;
16272;SDS011;8244;50.044;9.006;2022-10-16T14:42:02;2.40;;;1.42;;
16272;SDS011;8244;50.044;9.006;2022-10-16T14:47:07;1.92;;;1.48;;
16272;SDS011;8244;50.044;9.006;2022-10-16T14:52:13;2.97;;;1.60;;
16272;SDS011;8244;50.044;9.006;2022-10-16T14:57:17;3.58;;;1.58;;
16272;SDS011;8244;50.044;9.006;2022-10-16T15:02:23;4.90;;;1.48;;
16272;SDS011;8244;50.044;9.006;2022-10-16T15:07:29;3.72;;;1.60;;
16272;SDS011;8244;50.044;9.006;2022-10-16T15:12:32;6.72;;;2.08;;
16272;SDS011;8244;50.044;9.006;2022-10-16T15:17:34;4.60;;;1.60;;
16272;SDS011;8244;50.044;9.006;2022-10-16T15:22:36;4.85;;;1.60;;
16272;SDS011;8244;50.044;9.006;2022-10-16T15:27:39;1.92;;;1.40;;
16272;SDS011;8244;50.044;9.006;2022-10-16T15:32:41;2.13;;;1.30;;
16272;SDS011;8244;50.044;9.006;2022-10-16T15:37:42;2.03;;;1.40;;
16272;SDS011;8244;50.044;9.006;2022-10-16T15:42:45;4.63;;;1.70;;
16272;SDS011;8244;50.044;9.006;2022-10-16T15:47:47;4.53;;;1.65;;
16272;SDS011;8244;50.044;9.006;2022-10-16T15:52:49;3.72;;;1.50;;
16272;SDS011;8244;50.044;9.006;2022-10-16T15:57:53;2.25;;;1.60;;
16272;SDS011;8244;50.044;9.006;2022-10-16T16:02:55;4.57;;;2.00;;
16272;SDS011;8244;50.044;9.006;2022-10-16T16:07:56;2.55;;;1.42;;
16272;SDS011;8244;50.044;9.006;2022-10-16T16:13:00;3.88;;;1.80;;
16272;SDS011;8244;50.044;9.006;2022-10-16T16:18:01;3.67;;;2.47;;
16272;SDS011;8244;50.044;9.006;2022-10-16T16:23:05;2.47;;;2.00;;
16272;SDS011;8244;50.044;9.006;2022-10-16T16:28:11;3.15;;;1.73;;
16272;SDS011;8244;50.044;9.006;2022-10-16T16:33:14;5.50;;;1.90;;
16272;SDS011;8244;50.044;9.006;2022-10-16T16:38:16;4.22;;;2.05;;
16272;SDS011;8244;50.044;9.006;2022-10-16T16:43:19;4.25;;;1.90;;
16272;SDS011;8244;50.044;9.006;2022-10-16T16:48:23;3.17;;;1.90;;
16272;SDS011;8244;50.044;9.006;2022-10-16T16:53:24;5.05;;;2.05;;
16272;SDS011;8244;50.044;9.006;2022-10-16T16:58:27;7.00;;;2.25;;
16272;SDS011;8244;50.044;9.006;2022-10-16T17:03:29;11.05;;;2.58;;
16272;SDS011;8244;50.044;9.006;2022-10-16T17:08:32;5.75;;;2.88;;
16272;SDS011;8244;50.044;9.006;2022-10-16T17:13:36;11.30;;;7.05;;
16272;SDS011;8244;50.044;9.006;2022-10-16T17:18:38;10.32;;;5.30;;
16272;SDS011;8244;50.044;9.006;2022-10-16T17:23:40;7.97;;;3.60;;
16272;SDS011;8244;50.044;9.006;2022-10-16T17:28:43;10.63;;;4.13;;
16272;SDS011;8244;50.044;9.006;2022-10-16T17:33:45;6.55;;;2.45;;
16272;SDS011;8244;50.044;9.006;2022-10-16T17:38:48;4.13;;;2.60;;
16272;SDS011;8244;50.044;9.006;2022-10-16T17:43:51;7.28;;;2.97;;
16272;SDS011;8244;50.044;9.006;2022-10-16T17:48:53;4.30;;;3.15;;
16272;SDS011;8244;50.044;9.006;2022-10-16T17:53:56;11.73;;;3.83;;
16272;SDS011;8244;50.044;9.006;2022-10-16T17:59:01;9.90;;;4.15;;
16272;SDS011;8244;50.044;9.006;2022-10-16T18:04:04;7.03;;;3.50;;
16272;SDS011;8244;50.044;9.006;2022-10-16T18:09:09;10.50;;;3.88;;
16272;SDS011;8244;50.044;9.006;2022-10-16T18:14:14;6.88;;;3.80;;
16272;SDS011;8244;50.044;9.006;2022-10-16T18:19:17;8.27;;;4.25;;
16272;SDS011;8244;50.044;9.006;2022-10-16T18:24:19;6.90;;;3.45;;
16272;SDS011;8244;50.044;9.006;2022-10-16T18:29:25;6.05;;;3.30;;
16272;SDS011;8244;50.044;9.006;2022-10-16T18:34:27;4.97;;;3.00;;
16272;SDS011;8244;50.044;9.006;2022-10-16T18:39:29;5.60;;;3.47;;
16272;SDS011;8244;50.044;9.006;2022-10-16T18:49:37;6.97;;;3.35;;
16272;SDS011;8244;50.044;9.006;2022-10-16T18:54:39;9.23;;;3.90;;
16272;SDS011;8244;50.044;9.006;2022-10-16T18:59:42;4.10;;;3.30;;
16272;SDS011;8244;50.044;9.006;2022-10-16T19:04:43;6.75;;;4.03;;
16272;SDS011;8244;50.044;9.006;2022-10-16T19:09:45;6.00;;;4.10;;
16272;SDS011;8244;50.044;9.006;2022-10-16T19:14:48;10.57;;;4.68;;
16272;SDS011;8244;50.044;9.006;2022-10-16T19:19:50;11.70;;;6.20;;
16272;SDS011;8244;50.044;9.006;2022-10-16T19:24:52;11.57;;;6.43;;
16272;SDS011;8244;50.044;9.006;2022-10-16T19:29:55;14.90;;;7.47;;
16272;SDS011;8244;50.044;9.006;2022-10-16T19:34:56;13.18;;;7.45;;
16272;SDS011;8244;50.044;9.006;2022-10-16T19:39:58;12.82;;;6.15;;
16272;SDS011;8244;50.044;9.006;2022-10-16T19:45:01;9.30;;;4.97;;
16272;SDS011;8244;50.044;9.006;2022-10-16T19:50:04;9.35;;;5.07;;
16272;SDS011;8244;50.044;9.006;2022-10-16T19:55:08;11.88;;;4.63;;
16272;SDS011;8244;50.044;9.006;2022-10-16T20:00:12;12.88;;;4.70;;
16272;SDS011;8244;50.044;9.006;2022-10-16T20:05:16;7.95;;;4.45;;
16272;SDS011;8244;50.044;9.006;2022-10-16T20:10:18;8.98;;;4.95;;
16272;SDS011;8244;50.044;9.006;2022-10-16T20:15:21;8.13;;;4.47;;
16272;SDS011;8244;50.044;9.006;2022-10-16T20:20:23;8.20;;;4.07;;
16272;SDS011;8244;50.044;9.006;2022-10-16T20:25:24;6.57;;;3.83;;
16272;SDS011;8244;50.044;9.006;2022-10-16T20:30:27;13.95;;;4.72;;
16272;SDS011;8244;50.044;9.006;2022-10-16T20:35:34;8.85;;;4.07;;
16272;SDS011;8244;50.044;9.006;2022-10-16T20:40:36;8.80;;;4.00;;
16272;SDS011;8244;50.044;9.006;2022-10-16T20:45:40;10.02;;;4.50;;
16272;SDS011;8244;50.044;9.006;2022-10-16T20:50:42;12.95;;;4.70;;
16272;SDS011;8244;50.044;9.006;2022-10-16T20:55:43;10.02;;;4.47;;
16272;SDS011;8244;50.044;9.006;2022-10-16T21:00:46;8.10;;;4.43;;
16272;SDS011;8244;50.044;9.006;2022-10-16T21:05:48;13.15;;;5.43;;
16272;SDS011;8244;50.044;9.006;2022-10-16T21:10:50;11.00;;;4.20;;
16272;SDS011;8244;50.044;9.006;2022-10-16T21:15:53;14.05;;;5.32;;
16272;SDS011;8244;50.044;9.006;2022-10-16T21:20:56;11.13;;;4.00;;
16272;SDS011;8244;50.044;9.006;2022-10-16T21:25:58;9.00;;;3.92;;
16272;SDS011;8244;50.044;9.006;2022-10-16T21:31:10;11.45;;;4.00;;
16272;SDS011;8244;50.044;9.006;2022-10-16T21:36:14;9.85;;;4.63;;
16272;SDS011;8244;50.044;9.006;2022-10-16T21:41:18;7.20;;;4.18;;
16272;SDS011;8244;50.044;9.006;2022-10-16T21:46:23;7.18;;;4.07;;
16272;SDS011;8244;50.044;9.006;2022-10-16T21:51:26;10.40;;;4.20;;
16272;SDS011;8244;50.044;9.006;2022-10-16T21:56:29;11.75;;;4.57;;
16272;SDS011;8244;50.044;9.006;2022-10-16T22:01:32;9.38;;;3.65;;
16272;SDS011;8244;50.044;9.006;2022-10-16T22:06:34;5.57;;;3.67;;
16272;SDS011;8244;50.044;9.006;2022-10-16T22:11:36;5.35;;;3.47;;
16272;SDS011;8244;50.044;9.006;2022-10-16T22:16:39;9.65;;;3.75;;
16272;SDS011;8244;50.044;9.006;2022-10-16T22:21:41;12.02;;;3.70;;
16272;SDS011;8244;50.044;9.006;2022-10-16T22:26:45;7.57;;;3.38;;
16272;SDS011;8244;50.044;9.006;2022-10-16T22:31:50;9.73;;;3.53;;
16272;SDS011;8244;50.044;9.006;2022-10-16T22:36:53;9.75;;;3.60;;
16272;SDS011;8244;50.044;9.006;2022-10-16T22:41:54;10.68;;;3.50;;
16272;SDS011;8244;50.044;9.006;2022-10-16T22:46:57;6.22;;;3.47;;
16272;SDS011;8244;50.044;9.006;2022-10-16T22:51:59;9.60;;;3.60;;
16272;SDS011;8244;50.044;9.006;2022-10-16T22:57:01;9.10;;;3.30;;
16272;SDS011;8244;50.044;9.006;2022-10-16T23:02:04;6.05;;;2.92;;
16272;SDS011;8244;50.044;9.006;2022-10-16T23:07:05;7.68;;;2.92;;
16272;SDS011;8244;50.044;9.006;2022-10-16T23:12:07;6.70;;;3.13;;
16272;SDS011;8244;50.044;9.006;2022-10-16T23:17:10;6.70;;;3.03;;
16272;SDS011;8244;50.044;9.006;2022-10-16T23:22:12;8.65;;;2.80;;
16272;SDS011;8244;50.044;9.006;2022-10-16T23:27:14;13.90;;;3.10;;
16272;SDS011;8244;50.044;9.006;2022-10-16T23:32:17;9.85;;;2.72;;
16272;SDS011;8244;50.044;9.006;2022-10-16T23:37:18;8.75;;;3.10;;
16272;SDS011;8244;50.044;9.006;2022-10-16T23:42:20;8.85;;;3.10;;
16272;SDS011;8244;50.044;9.006;2022-10-16T23:47:23;11.32;;;2.97;;
16272;SDS011;8244;50.044;9.006;2022-10-16T23:52:25;6.32;;;2.90;;
16272;SDS011;8244;50.044;9.006;2022-10-16T23:57:27;9.70;;;2.97;;
